createdAt,value
2019-05-16T00:02:08.212Z,100287.69
2019-05-16T00:04:42.271Z,100288.19
2019-05-16T00:07:18.944Z,100285.14
2019-05-16T00:09:51.749Z,100280.78
2019-05-16T00:12:25.720Z,100283.83
2019-05-16T00:14:58.902Z,100279.97
2019-05-16T00:17:32.836Z,100282.10
2019-05-16T00:20:09.260Z,100272.48
2019-05-16T00:22:43.903Z,100278.56
2019-05-16T00:25:18.111Z,100283.78
2019-05-16T00:27:52.018Z,100277.74
2019-05-16T00:30:28.496Z,100269.84
2019-05-16T00:33:01.377Z,100269.84
2019-05-16T00:35:35.219Z,100259.41
2019-05-16T00:38:09.083Z,100265.58
2019-05-16T00:40:43.917Z,100269.94
2019-05-16T00:43:18.384Z,100260.72
2019-05-16T00:45:53.583Z,100258.09
2019-05-16T00:48:28.855Z,100254.59
2019-05-16T00:51:03.111Z,100249.79
2019-05-16T00:53:38.100Z,100244.94
2019-05-16T00:56:11.352Z,100229.60
2019-05-16T00:58:48.437Z,100217.47
2019-05-16T01:01:22.473Z,100225.86
2019-05-16T01:03:58.610Z,100216.25
2019-05-16T01:06:32.225Z,100216.78
2019-05-16T01:09:08.604Z,100221.55
2019-05-16T01:11:42.666Z,100221.96
2019-05-16T01:14:17.728Z,100208.89
2019-05-16T01:16:51.613Z,100199.69
2019-05-16T01:19:27.793Z,100204.86
2019-05-16T01:22:02.037Z,100208.80
2019-05-16T01:24:35.164Z,100209.71
2019-05-16T01:27:09.060Z,100197.42
2019-05-16T01:29:43.178Z,100197.33
2019-05-16T01:32:18.829Z,100191.11
2019-05-16T01:34:50.983Z,100194.48
2019-05-16T01:37:24.976Z,100197.16
2019-05-16T01:39:58.749Z,100185.84
2019-05-16T01:42:32.759Z,100199.79
2019-05-16T01:45:08.439Z,100201.11
2019-05-16T01:47:42.385Z,100197.23
2019-05-16T01:50:18.138Z,100182.48
2019-05-16T01:52:52.318Z,100170.28
2019-05-16T01:55:26.089Z,100187.06
2019-05-16T01:57:59.924Z,100175.27
2019-05-16T02:00:37.735Z,100178.44
2019-05-16T02:03:09.895Z,100179.34
2019-05-16T02:05:42.984Z,100166.33
2019-05-16T02:08:18.280Z,100172.98
2019-05-16T02:10:52.216Z,100170.76
2019-05-16T02:13:28.392Z,100173.84
2019-05-16T02:16:01.871Z,100182.27
2019-05-16T02:18:35.046Z,100180.50
2019-05-16T02:21:08.885Z,100169.08
2019-05-16T02:23:42.867Z,100176.61
2019-05-16T02:26:16.048Z,100172.20
2019-05-16T02:28:50.960Z,100175.29
2019-05-16T02:31:25.436Z,100171.84
2019-05-16T02:34:01.206Z,100172.66
2019-05-16T02:36:35.149Z,100167.80
2019-05-16T02:39:11.244Z,100168.63
2019-05-16T02:41:46.126Z,100165.50
2019-05-16T02:44:20.816Z,100161.59
2019-05-16T02:46:55.627Z,100157.66
2019-05-16T02:49:30.698Z,100162.45
2019-05-16T02:52:05.118Z,100158.52
2019-05-16T02:54:41.209Z,100151.03
2019-05-16T02:57:14.822Z,100159.30
2019-05-16T02:59:50.713Z,100156.66
2019-05-16T03:02:23.648Z,100153.99
2019-05-16T03:04:56.768Z,100154.85
2019-05-16T03:07:41.111Z,100147.00
2019-05-16T03:10:10.905Z,100147.37
2019-05-16T03:12:44.324Z,100139.48
2019-05-16T03:15:21.525Z,100139.88
2019-05-16T03:17:58.794Z,100131.13
2019-05-16T03:20:33.855Z,100132.36
2019-05-16T03:23:11.014Z,100130.99
2019-05-16T03:25:43.302Z,100138.77
2019-05-16T03:28:17.121Z,100135.63
2019-05-16T03:30:54.441Z,100144.34
2019-05-16T03:33:35.174Z,100149.05
2019-05-16T03:36:04.610Z,100138.08
2019-05-16T03:38:41.084Z,100134.45
2019-05-16T03:41:13.587Z,100140.08
2019-05-16T03:43:50.513Z,100129.50
2019-05-16T03:46:23.130Z,100129.36
2019-05-16T03:48:57.069Z,100129.23
2019-05-16T03:51:31.116Z,100125.64
2019-05-16T03:54:04.280Z,100124.69
2019-05-16T03:56:40.578Z,100120.11
2019-05-16T03:59:13.609Z,100117.33
2019-05-16T04:01:47.556Z,100118.91
2019-05-16T04:04:21.527Z,100114.31
2019-05-16T04:06:55.415Z,100113.30
2019-05-16T04:09:31.547Z,100121.48
2019-05-16T04:12:04.834Z,100120.88
2019-05-16T04:14:40.881Z,100119.91
2019-05-16T04:17:14.175Z,100121.95
2019-05-16T04:19:50.678Z,100110.81
2019-05-16T04:22:23.745Z,100110.70
2019-05-16T04:24:56.844Z,100103.21
2019-05-16T04:27:31.110Z,100104.39
2019-05-16T04:30:07.299Z,100099.13
2019-05-16T04:32:42.122Z,100109.55
2019-05-16T04:35:16.468Z,100106.92
2019-05-16T04:37:51.327Z,100102.46
2019-05-16T04:40:25.408Z,100097.91
2019-05-16T04:43:01.189Z,100103.94
2019-05-16T04:45:34.779Z,100097.70
2019-05-16T04:48:11.242Z,100101.87
2019-05-16T04:50:44.225Z,100091.22
2019-05-16T04:53:20.639Z,100093.64
2019-05-16T04:55:53.599Z,100094.30
2019-05-16T04:58:27.582Z,100094.95
2019-05-16T05:01:01.947Z,100084.09
2019-05-16T05:03:35.914Z,100087.68
2019-05-16T05:06:11.325Z,100087.66
2019-05-16T05:08:54.021Z,100087.66
2019-05-16T05:11:21.668Z,100087.86
2019-05-16T05:13:55.766Z,100091.33
2019-05-16T05:16:30.631Z,100096.38
2019-05-16T05:19:04.979Z,100087.28
2019-05-16T05:21:40.924Z,100090.05
2019-05-16T05:24:14.468Z,100086.50
2019-05-16T05:26:50.366Z,100093.50
2019-05-16T05:29:23.973Z,100086.33
2019-05-16T05:32:03.564Z,100092.41
2019-05-16T05:34:33.578Z,100092.86
2019-05-16T05:37:07.426Z,100098.66
2019-05-16T05:39:42.701Z,100092.86
2019-05-16T05:42:16.750Z,100080.07
2019-05-16T05:44:50.808Z,100093.00
2019-05-16T05:47:24.912Z,100101.99
2019-05-16T05:50:00.650Z,100089.20
2019-05-16T05:52:34.325Z,100078.97
2019-05-16T05:55:10.531Z,100074.58
2019-05-16T05:57:44.047Z,100080.53
2019-05-16T06:00:21.058Z,100090.07
2019-05-16T06:02:54.197Z,100090.72
2019-05-16T06:05:30.420Z,100083.69
2019-05-16T06:08:03.580Z,100091.98
2019-05-16T06:10:37.457Z,100080.41
2019-05-16T06:13:11.266Z,100082.53
2019-05-16T06:15:45.129Z,100077.64
2019-05-16T06:18:19.831Z,100083.31
2019-05-16T06:20:54.094Z,100074.40
2019-05-16T06:23:30.814Z,100079.36
2019-05-16T06:26:03.551Z,100080.04
2019-05-16T06:28:37.505Z,100075.83
2019-05-16T06:31:14.017Z,100079.84
2019-05-16T06:33:47.065Z,100077.04
2019-05-16T06:36:21.739Z,100071.38
2019-05-16T06:38:55.556Z,100080.20
2019-05-16T06:41:30.407Z,100078.41
2019-05-16T06:44:04.526Z,100078.56
2019-05-16T06:46:54.031Z,100080.98
2019-05-16T06:49:14.154Z,100085.25
2019-05-16T06:51:48.146Z,100091.07
2019-05-16T06:54:22.123Z,100101.57
2019-05-16T06:56:55.984Z,100080.13
2019-05-16T06:59:29.885Z,100082.56
2019-05-16T07:02:03.903Z,100085.31
2019-05-16T07:04:37.140Z,100083.66
2019-05-16T07:07:12.671Z,100073.22
2019-05-16T07:09:58.078Z,100084.03
2019-05-16T07:12:22.259Z,100079.69
2019-05-16T07:14:55.543Z,100080.05
2019-05-16T07:17:30.679Z,100074.41
2019-05-16T07:20:06.716Z,100062.30
2019-05-16T07:22:40.841Z,100070.06
2019-05-16T07:25:15.117Z,100055.66
2019-05-16T07:27:50.965Z,100061.30
2019-05-16T07:30:24.705Z,100067.45
2019-05-16T07:33:00.211Z,100066.48
2019-05-16T07:35:33.469Z,100070.61
2019-05-16T07:38:06.769Z,100076.20
2019-05-16T07:40:40.657Z,100065.84
2019-05-16T07:43:13.774Z,100075.39
2019-05-16T07:45:47.605Z,100069.04
2019-05-16T07:48:21.868Z,100068.73
2019-05-16T07:50:56.161Z,100082.60
2019-05-16T07:53:32.718Z,100063.97
2019-05-16T07:56:05.143Z,100065.81
2019-05-16T07:58:38.270Z,100053.44
2019-05-16T08:01:12.989Z,100070.25
2019-05-16T08:03:47.024Z,100060.17
2019-05-16T08:06:20.298Z,100059.54
2019-05-16T08:08:54.396Z,100050.30
2019-05-16T08:11:30.383Z,100054.08
2019-05-16T08:14:03.819Z,100058.81
2019-05-16T08:16:37.035Z,100063.16
2019-05-16T08:19:10.974Z,100063.13
2019-05-16T08:21:44.804Z,100048.97
2019-05-16T08:24:20.337Z,100059.53
2019-05-16T08:26:53.438Z,100060.52
2019-05-16T08:29:27.664Z,100063.84
2019-05-16T08:32:02.283Z,100062.16
2019-05-16T08:34:36.364Z,100051.31
2019-05-16T08:37:32.760Z,100058.50
2019-05-16T08:39:45.937Z,100057.73
2019-05-16T08:42:20.769Z,100050.14
2019-05-16T08:44:54.911Z,100048.66
2019-05-16T08:47:32.144Z,100056.53
2019-05-16T08:52:44.748Z,100048.38
2019-05-16T08:55:21.752Z,100040.62
2019-05-16T08:57:54.693Z,100038.06
2019-05-16T09:00:33.137Z,100043.98
2019-05-16T09:03:04.656Z,100039.98
2019-05-16T09:05:42.645Z,100058.26
2019-05-16T09:08:14.144Z,100049.41
2019-05-16T09:10:34.456Z,100056.94
2019-05-16T09:10:59.734Z,100052.90
2019-05-16T09:13:23.478Z,100047.72
2019-05-16T09:15:57.180Z,100051.63
2019-05-16T09:18:40.678Z,100040.86
2019-05-16T09:21:07.434Z,100039.56
2019-05-16T09:23:41.718Z,100037.03
2019-05-16T09:26:19.280Z,100057.11
2019-05-16T09:28:51.679Z,100039.89
2019-05-16T09:31:27.668Z,100040.41
2019-05-16T09:34:02.142Z,100037.89
2019-05-16T09:36:37.101Z,100040.99
2019-05-16T09:39:10.285Z,100035.44
2019-05-16T09:41:50.965Z,100036.41
2019-05-16T09:44:20.095Z,100032.88
2019-05-16T09:46:56.839Z,100027.67
2019-05-16T09:49:29.712Z,100037.72
2019-05-16T09:52:03.847Z,100040.42
2019-05-16T09:54:38.158Z,100038.09
2019-05-16T09:57:12.012Z,100028.86
2019-05-16T09:59:46.574Z,100038.79
2019-05-16T10:02:20.697Z,100028.75
2019-05-16T10:04:53.828Z,100044.14
2019-05-16T10:07:29.150Z,100035.33
2019-05-16T10:10:03.168Z,100034.05
2019-05-16T10:12:37.104Z,100040.30
2019-05-16T10:15:12.870Z,100031.16
2019-05-16T10:17:47.613Z,100033.20
2019-05-16T10:20:21.878Z,100035.79
2019-05-16T10:22:57.951Z,100037.54
2019-05-16T10:25:31.401Z,100044.48
2019-05-16T10:28:05.375Z,100041.91
2019-05-16T10:30:38.600Z,100046.06
2019-05-16T10:33:12.514Z,100047.10
2019-05-16T10:35:48.008Z,100047.63
2019-05-16T10:38:22.060Z,100016.71
2019-05-16T10:40:56.609Z,100053.51
2019-05-16T10:43:30.542Z,100041.34
2019-05-16T10:46:06.510Z,100042.22
2019-05-16T10:48:40.006Z,100047.79
2019-05-16T10:51:13.922Z,100047.77
2019-05-16T10:54:13.125Z,100043.25
2019-05-16T10:56:23.547Z,100049.31
2019-05-16T10:59:28.485Z,100050.04
2019-05-16T11:01:33.137Z,100052.02
2019-05-16T11:04:07.604Z,100058.48
2019-05-16T11:06:41.601Z,100059.18
2019-05-16T11:09:17.343Z,100061.37
2019-05-16T11:11:51.000Z,100059.86
2019-05-16T11:14:27.980Z,100069.67
2019-05-16T11:17:00.379Z,100058.71
2019-05-16T11:19:34.260Z,100060.16
2019-05-16T11:22:08.131Z,100045.45
2019-05-16T11:24:42.156Z,100051.49
2019-05-16T11:27:15.317Z,100051.49
2019-05-16T11:29:49.148Z,100055.78
2019-05-16T11:32:23.038Z,100053.75
2019-05-16T11:34:57.048Z,100055.03
2019-05-16T11:37:30.856Z,100051.36
2019-05-16T11:40:09.278Z,100052.45
2019-05-16T11:42:43.186Z,100050.03
2019-05-16T11:45:17.352Z,100039.06
2019-05-16T11:47:51.308Z,100039.06
2019-05-16T11:50:27.846Z,100043.30
